Time;durP1;ratioP1;P1;durP2;ratioP2;P2;SDS_P1;SDS_P2;PMS_P1;PMS_P2;Temp;Humidity;BMP_temperature;BMP_pressure;BME280_temperature;BME280_humidity;BME280_pressure;Samples;Min_cycle;Max_cycle;Signal;HPM_P1;HPM_P2
2022/06/05 00:01:20;;;;;;;6.87;6.27;;;20.30;70.40;;;;;;5078830;28;20462;-71
2022/06/05 00:03:53;;;;;;;7.37;6.77;;;20.30;70.40;;;;;;5081116;28;20493;-73
2022/06/05 00:06:26;;;;;;;7.30;6.80;;;20.30;70.50;;;;;;5081928;28;20470;-70
2022/06/05 00:09:08;;;;;;;6.93;6.43;;;20.30;70.70;;;;;;5082113;28;20425;-72
2022/06/05 00:11:45;;;;;;;6.70;6.20;;;20.30;70.70;;;;;;5080337;28;20959;-70
2022/06/05 00:14:12;;;;;;;6.87;6.30;;;20.30;71.00;;;;;;5078461;28;20918;-70
2022/06/05 00:16:40;;;;;;;7.40;6.63;;;20.30;70.60;;;;;;5078269;28;20450;-71
2022/06/05 00:19:08;;;;;;;6.97;6.50;;;20.40;70.50;;;;;;5078847;28;20466;-71
2022/06/05 00:21:34;;;;;;;6.70;6.10;;;20.40;70.40;;;;;;5078307;28;20565;-72
2022/06/05 00:24:01;;;;;;;6.30;5.80;;;20.40;70.70;;;;;;5078040;28;20449;-71
2022/06/05 00:26:38;;;;;;;7.43;6.73;;;20.40;71.00;;;;;;5078362;28;20834;-74
2022/06/05 00:29:17;;;;;;;7.27;6.70;;;20.20;72.00;;;;;;5078688;28;20417;-72
2022/06/05 00:31:52;;;;;;;7.87;7.17;;;20.20;72.20;;;;;;5078923;28;20971;-71
2022/06/05 00:34:19;;;;;;;6.70;6.10;;;20.20;72.40;;;;;;5078033;28;20426;-72
2022/06/05 00:36:59;;;;;;;7.60;7.10;;;20.20;72.50;;;;;;5078117;28;20426;-70
2022/06/05 00:39:35;;;;;;;7.90;7.13;;;20.10;73.60;;;;;;5077935;28;20800;-69
2022/06/05 00:42:05;;;;;;;8.10;7.50;;;20.00;74.20;;;;;;5079157;28;20436;-71
2022/06/05 00:44:36;;;;;;;7.83;7.13;;;20.00;74.80;;;;;;5079058;28;20967;-70
2022/06/05 00:47:07;;;;;;;7.20;6.60;;;20.00;75.00;;;;;;5081976;28;20418;-70
2022/06/05 00:49:40;;;;;;;8.27;7.57;;;19.90;75.40;;;;;;5082541;28;20463;-73
2022/06/05 00:52:10;;;;;;;8.37;7.63;;;19.80;76.60;;;;;;5080138;28;20451;-73
2022/06/05 00:54:37;;;;;;;8.27;7.57;;;19.80;76.60;;;;;;5084141;28;20582;-74
2022/06/05 00:57:08;;;;;;;7.93;7.33;;;19.80;76.50;;;;;;5084744;28;20475;-73
2022/06/05 00:59:35;;;;;;;8.40;7.70;;;19.80;76.60;;;;;;5076785;28;20870;-72
2022/06/05 01:02:02;;;;;;;9.10;8.30;;;19.70;76.60;;;;;;5077687;28;20430;-71
2022/06/05 01:04:33;;;;;;;8.90;8.00;;;19.80;77.00;;;;;;5076406;28;20926;-72
2022/06/05 01:07:00;;;;;;;9.70;8.90;;;19.70;77.50;;;;;;5076618;28;20478;-71
2022/06/05 01:09:27;;;;;;;9.97;8.70;;;19.70;77.80;;;;;;5076657;28;20444;-73
2022/06/05 01:12:09;;;;;;;9.23;8.53;;;19.70;78.00;;;;;;5079616;28;20456;-71
2022/06/05 01:14:49;;;;;;;9.17;8.47;;;19.70;78.10;;;;;;5080771;28;20581;-71
2022/06/05 01:17:23;;;;;;;8.83;8.13;;;19.70;78.60;;;;;;5076927;28;20419;-71
2022/06/05 01:20:00;;;;;;;8.07;7.53;;;19.60;78.80;;;;;;5077126;28;20484;-74
2022/06/05 01:22:44;;;;;;;9.60;8.60;;;19.70;78.70;;;;;;5077447;28;20436;-75
2022/06/05 01:25:41;;;;;;;9.13;8.43;;;19.70;79.40;;;;;;5076685;28;20525;-72
2022/06/05 01:28:12;;;;;;;8.07;7.37;;;19.80;78.20;;;;;;5076787;28;20437;-73
2022/06/05 01:30:48;;;;;;;8.37;7.67;;;19.80;79.40;;;;;;5076723;28;20458;-74
2022/06/05 01:33:20;;;;;;;9.13;8.33;;;19.70;80.80;;;;;;5077217;28;20422;-74
2022/06/05 01:35:58;;;;;;;8.90;8.20;;;19.70;80.80;;;;;;5076177;28;20453;-74
2022/06/05 01:38:33;;;;;;;8.90;8.20;;;19.70;80.80;;;;;;5076645;28;20709;-75
2022/06/05 01:41:08;;;;;;;9.60;8.70;;;19.80;82.50;;;;;;5075619;28;20502;-73
2022/06/05 01:43:38;;;;;;;10.30;9.40;;;19.70;83.30;;;;;;5074620;28;20437;-74
2022/06/05 01:46:10;;;;;;;10.20;9.40;;;19.60;85.00;;;;;;5074379;28;20450;-71
2022/06/05 01:48:41;;;;;;;10.47;9.63;;;19.50;86.90;;;;;;5074629;28;20438;-72
2022/06/05 01:51:14;;;;;;;10.00;9.10;;;19.40;90.90;;;;;;5074345;28;20418;-71
2022/06/05 01:53:44;;;;;;;10.90;9.90;;;19.20;93.20;;;;;;5074420;28;20488;-73
2022/06/05 01:56:17;;;;;;;11.37;10.47;;;18.90;96.90;;;;;;5074741;28;20979;-73
2022/06/05 01:58:47;;;;;;;13.30;12.03;;;18.70;99.90;;;;;;5075923;28;20538;-73
2022/06/05 02:01:25;;;;;;;14.53;13.13;;;18.50;99.90;;;;;;5076014;28;20565;-73
2022/06/05 02:03:58;;;;;;;14.83;13.53;;;18.40;99.90;;;;;;5076588;28;20776;-74
2022/06/05 02:06:33;;;;;;;17.53;13.80;;;18.30;99.90;;;;;;5075034;28;20819;-75
2022/06/05 02:09:05;;;;;;;15.30;13.80;;;18.20;99.90;;;;;;5076254;28;20761;-75
2022/06/05 02:11:37;;;;;;;14.10;12.80;;;18.30;99.90;;;;;;5075921;28;20444;-75
2022/06/05 02:14:05;;;;;;;14.23;13.00;;;18.20;99.90;;;;;;5075665;28;20525;-74
2022/06/05 02:16:35;;;;;;;14.47;13.20;;;18.20;99.90;;;;;;5075897;28;20468;-74
2022/06/05 02:19:05;;;;;;;14.67;13.47;;;18.10;99.90;;;;;;5075766;28;20458;-73
2022/06/05 02:21:33;;;;;;;15.07;13.80;;;18.10;99.90;;;;;;5075711;28;20587;-74
2022/06/05 02:24:00;;;;;;;14.90;13.53;;;18.10;99.90;;;;;;5077032;28;20427;-74
2022/06/05 02:26:28;;;;;;;16.40;15.10;;;18.00;99.90;;;;;;5082829;28;20468;-74
2022/06/05 02:28:56;;;;;;;15.33;14.03;;;18.00;99.90;;;;;;5073888;28;20455;-73
2022/06/05 02:31:35;;;;;;;15.33;14.03;;;17.90;99.90;;;;;;5074140;28;20559;-74
2022/06/05 02:34:11;;;;;;;16.77;15.20;;;17.90;99.90;;;;;;5073524;28;20470;-74
2022/06/05 02:36:54;;;;;;;16.97;15.27;;;17.90;99.90;;;;;;5073617;28;20461;-74
2022/06/05 02:39:33;;;;;;;15.60;14.20;;;17.90;99.90;;;;;;5073916;28;20460;-74
2022/06/05 02:42:06;;;;;;;15.97;14.57;;;17.90;99.90;;;;;;5074574;28;20470;-74
2022/06/05 02:44:46;;;;;;;16.30;14.40;;;17.90;99.90;;;;;;5075990;28;20454;-74
2022/06/05 02:47:22;;;;;;;15.30;14.00;;;17.90;99.90;;;;;;5078310;28;20534;-75
2022/06/05 02:49:55;;;;;;;15.40;13.90;;;17.90;99.90;;;;;;5078706;28;20823;-73
2022/06/05 02:52:23;;;;;;;15.23;13.80;;;18.00;99.90;;;;;;5085682;28;20444;-74
2022/06/05 02:54:56;;;;;;;14.40;13.17;;;18.00;99.90;;;;;;5076688;28;20447;-73
2022/06/05 02:57:23;;;;;;;14.47;13.27;;;18.10;99.90;;;;;;5077799;28;20454;-74
2022/06/05 02:59:52;;;;;;;14.03;12.63;;;18.10;99.90;;;;;;5075736;28;20459;-73
2022/06/05 03:05:03;;;;;;;12.17;11.10;;;18.20;99.90;;;;;;5075462;28;20429;-74
2022/06/05 03:07:30;;;;;;;12.67;11.47;;;18.30;99.90;;;;;;5077884;28;20456;-75
2022/06/05 03:09:57;;;;;;;12.97;11.87;;;18.30;99.90;;;;;;5085254;28;20419;-75
2022/06/05 03:12:24;;;;;;;11.97;10.87;;;18.40;99.90;;;;;;5080802;28;20514;-74
2022/06/05 03:14:56;;;;;;;13.30;12.20;;;18.40;99.90;;;;;;5084737;28;20524;-74
2022/06/05 03:17:23;;;;;;;10.90;10.00;;;18.40;99.90;;;;;;5080525;28;20419;-73
2022/06/05 03:19:49;;;;;;;10.83;10.00;;;18.50;99.90;;;;;;5073714;28;20433;-73
2022/06/05 03:22:16;;;;;;;11.90;10.80;;;18.50;99.90;;;;;;5073231;28;20469;-73
2022/06/05 03:24:43;;;;;;;11.30;10.40;;;18.60;99.90;;;;;;5075307;28;20450;-74
2022/06/05 03:27:10;;;;;;;10.00;9.20;;;18.70;99.90;;;;;;5075916;28;20426;-73
2022/06/05 03:29:37;;;;;;;11.43;10.30;;;18.80;99.90;;;;;;5076689;28;20497;-73
2022/06/05 03:32:06;;;;;;;11.90;11.00;;;18.80;99.90;;;;;;5077456;28;20483;-75
2022/06/05 03:34:33;;;;;;;12.20;11.07;;;18.80;99.90;;;;;;5078949;28;20440;-74
2022/06/05 03:37:00;;;;;;;12.80;11.63;;;18.70;99.90;;;;;;5079817;28;20435;-75
2022/06/05 03:39:27;;;;;;;13.30;12.10;;;18.70;99.90;;;;;;5075308;28;20456;-75
2022/06/05 03:41:54;;;;;;;12.90;11.83;;;18.60;99.90;;;;;;5073476;28;20935;-75
2022/06/05 03:44:20;;;;;;;12.67;11.57;;;18.60;99.90;;;;;;5072775;28;20430;-75
2022/06/05 03:46:47;;;;;;;13.53;12.40;;;18.50;99.90;;;;;;5073236;28;20441;-74
2022/06/05 03:49:15;;;;;;;14.90;13.40;;;18.60;99.90;;;;;;5073363;28;20437;-75
2022/06/05 03:51:42;;;;;;;15.10;13.57;;;18.50;99.90;;;;;;5079036;28;20427;-74
2022/06/05 03:54:09;;;;;;;15.13;13.63;;;18.50;99.90;;;;;;5079568;28;20480;-75
2022/06/05 03:56:37;;;;;;;14.43;13.13;;;18.50;99.90;;;;;;5073164;28;20471;-75
2022/06/05 03:59:04;;;;;;;14.20;12.70;;;18.40;99.90;;;;;;5074152;28;20498;-76
2022/06/05 04:01:31;;;;;;;16.23;14.67;;;18.40;99.90;;;;;;5073916;28;20465;-76
2022/06/05 04:03:58;;;;;;;16.47;15.07;;;18.30;99.90;;;;;;5073489;28;20764;-74
2022/06/05 04:06:29;;;;;;;17.57;16.07;;;18.40;99.90;;;;;;5073670;28;20479;-75
2022/06/05 04:08:57;;;;;;;17.07;15.57;;;18.20;99.90;;;;;;5076768;28;20441;-74
2022/06/05 04:11:25;;;;;;;17.17;15.23;;;18.30;99.90;;;;;;5077428;28;20779;-77
2022/06/05 04:13:52;;;;;;;18.13;16.47;;;18.30;99.90;;;;;;5082564;28;20423;-75
2022/06/05 04:16:21;;;;;;;20.43;18.23;;;18.30;99.90;;;;;;5094812;28;20594;-75
2022/06/05 04:18:49;;;;;;;17.67;16.10;;;18.30;99.90;;;;;;5094602;28;20454;-75
2022/06/05 04:21:21;;;;;;;19.50;17.70;;;18.30;99.90;;;;;;5086787;28;20461;-75
2022/06/05 04:23:50;;;;;;;18.10;16.60;;;18.30;99.90;;;;;;5075158;28;20425;-76
2022/06/05 04:26:21;;;;;;;17.90;16.30;;;18.30;99.90;;;;;;5073103;28;20454;-76
2022/06/05 04:28:48;;;;;;;18.97;17.33;;;18.30;99.90;;;;;;5072752;28;20422;-76
2022/06/05 04:31:21;;;;;;;18.20;16.53;;;18.30;99.90;;;;;;5075552;28;20429;-76
2022/06/05 04:33:49;;;;;;;18.07;16.57;;;18.30;99.90;;;;;;5076267;28;20452;-76
2022/06/05 04:36:16;;;;;;;17.13;15.63;;;18.30;99.90;;;;;;5075886;28;20976;-76
2022/06/05 04:38:43;;;;;;;16.43;15.00;;;18.40;99.90;;;;;;5076461;28;20426;-75
2022/06/05 04:41:12;;;;;;;17.67;16.03;;;18.40;99.90;;;;;;5077252;28;20462;-75
2022/06/05 04:43:39;;;;;;;18.33;16.43;;;18.50;99.90;;;;;;5084977;28;20444;-75
2022/06/05 04:46:06;;;;;;;18.47;16.90;;;18.50;99.90;;;;;;5076748;28;20978;-76
2022/06/05 04:48:34;;;;;;;19.13;17.17;;;18.50;99.90;;;;;;5077335;28;20447;-76
2022/06/05 04:51:03;;;;;;;24.07;19.80;;;18.40;99.90;;;;;;5076880;28;20423;-75
2022/06/05 04:53:31;;;;;;;22.07;19.80;;;18.40;99.90;;;;;;5077228;28;20438;-75
2022/06/05 04:55:58;;;;;;;20.87;18.87;;;18.40;99.90;;;;;;5076388;28;20442;-75
2022/06/05 04:58:26;;;;;;;21.80;19.60;;;18.30;99.90;;;;;;5077486;28;20521;-76
2022/06/05 05:00:53;;;;;;;21.40;19.30;;;18.30;99.90;;;;;;5077269;28;20993;-75
2022/06/05 05:03:20;;;;;;;19.70;17.80;;;18.20;99.90;;;;;;5077429;28;20462;-76
2022/06/05 05:05:47;;;;;;;19.70;17.97;;;18.30;99.90;;;;;;5077080;28;20826;-76
2022/06/05 05:08:13;;;;;;;19.33;17.57;;;18.30;99.90;;;;;;5077079;28;20470;-76
2022/06/05 05:10:41;;;;;;;19.50;17.40;;;18.30;99.90;;;;;;5078153;28;20838;-76
2022/06/05 05:13:08;;;;;;;19.70;17.90;;;18.30;99.90;;;;;;5077119;28;20462;-76
2022/06/05 05:15:36;;;;;;;19.73;17.93;;;18.30;99.90;;;;;;5079298;28;20480;-76
2022/06/05 05:18:03;;;;;;;19.37;17.67;;;18.30;99.90;;;;;;5081246;28;20452;-75
2022/06/05 05:20:30;;;;;;;19.27;17.57;;;18.30;99.90;;;;;;5081013;28;20939;-75
2022/06/05 05:22:57;;;;;;;20.43;18.53;;;18.40;99.90;;;;;;5078842;28;20934;-74
2022/06/05 05:25:25;;;;;;;19.33;17.40;;;18.40;99.90;;;;;;5087445;28;20482;-76
2022/06/05 05:27:52;;;;;;;18.07;16.30;;;18.40;99.90;;;;;;5094075;28;20463;-75
2022/06/05 05:30:19;;;;;;;18.60;17.00;;;18.40;99.90;;;;;;5092044;28;20797;-75
2022/06/05 05:32:47;;;;;;;17.03;15.50;;;18.40;99.90;;;;;;5083142;28;20429;-75
2022/06/05 05:35:13;;;;;;;18.17;16.57;;;18.50;99.90;;;;;;5095655;28;20550;-77
2022/06/05 05:37:40;;;;;;;18.80;17.10;;;18.50;99.90;;;;;;5094415;28;20897;-74
2022/06/05 05:42:53;;;;;;;17.13;15.60;;;18.60;99.90;;;;;;5074851;28;20449;-74
2022/06/05 05:45:20;;;;;;;16.87;15.43;;;18.60;99.90;;;;;;5073983;28;21011;-75
2022/06/05 05:47:48;;;;;;;17.90;16.30;;;18.60;99.90;;;;;;5074502;28;20916;-74
2022/06/05 05:50:16;;;;;;;18.73;16.97;;;18.70;99.90;;;;;;5074273;28;20776;-75
2022/06/05 05:52:44;;;;;;;18.00;16.30;;;18.80;99.90;;;;;;5074343;28;20783;-75
2022/06/05 05:55:13;;;;;;;18.83;17.23;;;18.90;99.90;;;;;;5074092;28;20567;-75
2022/06/05 05:57:40;;;;;;;14.57;13.37;;;19.10;99.90;;;;;;5074698;28;20437;-75
2022/06/05 06:00:11;;;;;;;16.80;15.23;;;19.30;99.90;;;;;;5073898;28;20899;-75
2022/06/05 06:02:39;;;;;;;15.63;14.20;;;19.60;99.90;;;;;;5074058;28;20469;-75
2022/06/05 06:05:09;;;;;;;14.43;13.03;;;19.80;99.90;;;;;;5073659;28;20446;-75
2022/06/05 06:07:36;;;;;;;14.07;12.77;;;19.70;99.90;;;;;;5074087;28;20891;-75
2022/06/05 06:10:04;;;;;;;15.60;14.20;;;19.60;99.90;;;;;;5073979;28;20805;-75
2022/06/05 06:12:31;;;;;;;15.77;14.40;;;19.40;99.90;;;;;;5074928;28;20998;-74
2022/06/05 06:14:58;;;;;;;16.00;14.33;;;19.40;99.90;;;;;;5073802;28;20555;-75
2022/06/05 06:17:24;;;;;;;14.20;13.00;;;19.60;99.90;;;;;;5074132;28;20432;-75
2022/06/05 06:19:51;;;;;;;18.87;13.60;;;19.60;99.90;;;;;;5074058;28;20407;-75
2022/06/05 06:22:20;;;;;;;16.13;14.63;;;19.50;99.90;;;;;;5073789;28;20983;-75
2022/06/05 06:24:47;;;;;;;16.90;15.10;;;19.40;99.90;;;;;;5073989;28;20496;-74
2022/06/05 06:27:14;;;;;;;16.27;14.87;;;19.30;99.90;;;;;;5074076;28;20550;-75
2022/06/05 06:29:41;;;;;;;16.47;15.10;;;19.20;99.90;;;;;;5081655;28;20439;-74
2022/06/05 06:32:08;;;;;;;17.70;16.00;;;19.10;99.90;;;;;;5072971;28;20955;-74
2022/06/05 06:34:35;;;;;;;18.27;16.77;;;19.00;99.90;;;;;;5073071;28;20444;-74
2022/06/05 06:37:02;;;;;;;18.00;16.40;;;19.10;99.90;;;;;;5073263;28;20443;-74
2022/06/05 06:39:30;;;;;;;15.40;14.10;;;19.00;99.90;;;;;;5073545;28;20462;-74
2022/06/05 06:41:57;;;;;;;17.50;15.87;;;18.90;99.90;;;;;;5073512;28;20583;-74
2022/06/05 06:44:25;;;;;;;17.23;15.53;;;18.90;99.90;;;;;;5073303;28;20426;-74
2022/06/05 06:46:52;;;;;;;16.60;15.30;;;18.90;99.90;;;;;;5073387;28;20538;-74
2022/06/05 06:49:33;;;;;;;16.10;14.70;;;19.00;99.90;;;;;;5073680;28;20469;-76
2022/06/05 06:52:01;;;;;;;15.77;14.27;;;19.00;99.90;;;;;;5073070;28;20967;-74
2022/06/05 06:54:27;;;;;;;16.27;14.37;;;19.00;99.90;;;;;;5072979;28;20430;-75
2022/06/05 06:56:56;;;;;;;14.40;13.23;;;18.90;99.90;;;;;;5073781;28;20427;-74
2022/06/05 06:59:23;;;;;;;14.40;13.10;;;19.00;99.90;;;;;;5073244;28;20526;-74
2022/06/05 07:01:50;;;;;;;13.50;12.30;;;19.10;99.90;;;;;;5074069;28;21032;-74
2022/06/05 07:04:17;;;;;;;12.93;11.90;;;19.10;99.90;;;;;;5074397;28;20437;-73
2022/06/05 07:06:44;;;;;;;12.40;11.40;;;19.10;99.90;;;;;;5073279;28;20575;-74
2022/06/05 07:09:14;;;;;;;11.40;10.50;;;19.10;99.90;;;;;;5073636;28;20431;-73
2022/06/05 07:11:41;;;;;;;12.37;11.27;;;19.20;99.90;;;;;;5073422;28;20954;-73
2022/06/05 07:14:10;;;;;;;12.20;11.10;;;19.20;99.90;;;;;;5073355;28;20850;-73
2022/06/05 07:16:37;;;;;;;11.63;10.73;;;19.20;99.90;;;;;;5072812;28;20504;-74
2022/06/05 07:19:05;;;;;;;11.30;10.50;;;19.20;99.90;;;;;;5072993;28;20435;-74
2022/06/05 07:21:31;;;;;;;10.87;10.07;;;19.20;99.90;;;;;;5072673;28;20454;-73
2022/06/05 07:23:59;;;;;;;11.23;10.20;;;19.20;99.90;;;;;;5073093;28;21147;-73
2022/06/05 07:26:28;;;;;;;11.30;10.20;;;19.30;99.90;;;;;;5074113;28;20545;-74
2022/06/05 07:28:56;;;;;;;10.70;9.90;;;19.30;99.90;;;;;;5076334;28;20981;-73
2022/06/05 07:31:26;;;;;;;10.60;9.70;;;19.30;99.90;;;;;;5074605;28;20475;-73
2022/06/05 07:33:53;;;;;;;10.87;9.73;;;19.40;99.90;;;;;;5074129;28;20507;-74
2022/06/05 07:36:21;;;;;;;11.30;10.07;;;19.40;99.90;;;;;;5073557;28;20542;-75
2022/06/05 07:38:49;;;;;;;10.40;9.50;;;19.50;99.90;;;;;;5074933;28;20456;-75
2022/06/05 07:41:18;;;;;;;10.63;9.77;;;19.60;99.90;;;;;;5074892;28;20887;-74
2022/06/05 07:43:45;;;;;;;11.87;10.87;;;19.70;99.90;;;;;;5075211;28;21003;-74
2022/06/05 07:46:12;;;;;;;10.33;9.43;;;19.70;99.90;;;;;;5113708;22;20496;-79
2022/06/05 07:48:41;;;;;;;11.13;10.03;;;19.80;99.90;;;;;;5078006;28;20797;-79
2022/06/05 07:56:40;;;;;;;12.00;10.80;;;19.50;99.90;;;;;;5096979;28;20414;-85
2022/06/05 07:59:07;;;;;;;10.90;10.00;;;19.50;99.90;;;;;;5096531;28;20476;-84
2022/06/05 08:01:35;;;;;;;10.90;10.00;;;19.60;99.90;;;;;;5096544;28;20395;-83
2022/06/05 08:04:03;;;;;;;11.30;10.30;;;19.60;98.60;;;;;;5097964;28;20520;-85
2022/06/05 08:06:30;;;;;;;10.70;9.60;;;19.80;98.90;;;;;;5100633;28;20467;-82
2022/06/05 08:08:59;;;;;;;11.10;10.10;;;19.90;97.60;;;;;;5101134;28;20441;-82
2022/06/05 08:11:26;;;;;;;10.67;9.67;;;20.00;96.80;;;;;;5100473;28;20425;-81
2022/06/05 08:13:52;;;;;;;10.43;9.37;;;20.20;95.50;;;;;;5095527;28;20550;-81
2022/06/05 08:16:19;;;;;;;10.73;9.57;;;20.30;94.90;;;;;;5088186;28;20468;-78
2022/06/05 08:18:46;;;;;;;9.87;9.03;;;20.60;94.60;;;;;;5084110;28;20457;-81
2022/06/05 08:21:14;;;;;;;9.90;8.90;;;20.90;93.60;;;;;;5082117;28;20459;-80
2022/06/05 08:23:41;;;;;;;8.40;7.70;;;21.10;91.70;;;;;;5079656;28;20486;-79
2022/06/05 08:26:08;;;;;;;10.50;7.93;;;21.40;90.00;;;;;;5079993;28;20473;-79
2022/06/05 08:28:36;;;;;;;8.43;7.63;;;21.70;83.10;;;;;;5080061;28;20465;-79
2022/06/05 08:31:03;;;;;;;8.80;6.83;;;22.00;80.50;;;;;;5079663;28;20430;-79
2022/06/05 08:33:30;;;;;;;7.27;6.67;;;22.20;74.30;;;;;;5080155;28;20466;-80
2022/06/05 08:35:57;;;;;;;8.07;7.30;;;22.60;71.40;;;;;;5084975;28;20437;-79
2022/06/05 08:41:31;;;;;;;7.90;7.30;;;22.70;69.10;;;;;;5100176;28;20457;-79
2022/06/05 08:44:05;;;;;;;7.10;6.60;;;22.60;70.10;;;;;;5088792;28;20483;-79
2022/06/05 08:46:40;;;;;;;6.97;6.37;;;23.20;70.70;;;;;;5090039;28;20460;-79
2022/06/05 08:49:11;;;;;;;7.37;6.17;;;23.90;66.40;;;;;;5083602;28;20447;-79
2022/06/05 08:51:48;;;;;;;5.90;5.50;;;24.50;62.70;;;;;;5089303;28;20412;-80
2022/06/05 08:54:20;;;;;;;6.00;5.23;;;24.90;59.20;;;;;;5090168;28;20451;-79
2022/06/05 08:56:50;;;;;;;7.40;5.33;;;25.10;57.00;;;;;;5086898;28;20539;-79
2022/06/05 08:59:24;;;;;;;6.07;5.47;;;25.50;56.70;;;;;;5081700;28;20972;-79
2022/06/05 09:01:58;;;;;;;6.57;6.07;;;25.70;56.10;;;;;;5083183;28;20488;-79
2022/06/05 09:04:38;;;;;;;6.43;5.40;;;25.70;56.20;;;;;;5083566;28;20502;-80
2022/06/05 09:07:10;;;;;;;7.47;6.70;;;25.60;56.10;;;;;;5081792;28;20445;-78
2022/06/05 09:09:43;;;;;;;7.33;6.63;;;25.50;55.60;;;;;;5078194;28;20439;-78
2022/06/05 09:12:16;;;;;;;8.13;7.43;;;25.40;57.00;;;;;;5077734;28;20457;-78
2022/06/05 09:14:49;;;;;;;8.80;8.00;;;25.40;56.90;;;;;;5080302;28;20419;-78
2022/06/05 09:17:18;;;;;;;9.50;8.70;;;25.30;57.30;;;;;;5079431;28;20436;-78
2022/06/05 09:19:48;;;;;;;10.47;9.63;;;24.80;59.60;;;;;;5083069;28;20489;-78
2022/06/05 09:22:18;;;;;;;9.93;9.03;;;24.50;62.70;;;;;;5096294;28;20530;-79
2022/06/05 09:25:20;;;;;;;12.17;10.10;;;24.50;63.70;;;;;;5089639;28;20445;-80
2022/06/05 09:28:06;;;;;;;9.90;9.10;;;24.70;62.90;;;;;;5087479;28;20833;-80
2022/06/05 09:30:39;;;;;;;12.13;10.73;;;24.90;63.10;;;;;;5080392;28;21048;-79
2022/06/05 09:33:16;;;;;;;13.63;12.20;;;25.10;61.20;;;;;;5079484;28;20546;-78
2022/06/05 09:35:47;;;;;;;12.40;11.40;;;25.30;60.20;;;;;;5079679;28;20446;-77
2022/06/05 09:38:22;;;;;;;12.60;11.53;;;25.30;60.40;;;;;;5079869;28;20449;-79
2022/06/05 09:41:03;;;;;;;14.20;13.00;;;25.50;59.70;;;;;;5081609;28;20444;-80
2022/06/05 09:43:44;;;;;;;14.17;12.97;;;25.50;60.20;;;;;;5094633;28;20476;-80
2022/06/05 09:46:44;;;;;;;13.50;12.43;;;25.40;59.70;;;;;;5094454;28;20474;-79
2022/06/05 09:49:16;;;;;;;14.40;13.10;;;25.40;59.60;;;;;;5093882;28;20451;-80
2022/06/05 09:51:45;;;;;;;15.03;13.83;;;25.50;58.10;;;;;;5092950;28;20475;-79
2022/06/05 09:54:19;;;;;;;15.77;14.43;;;25.30;58.60;;;;;;5089839;28;20495;-78
2022/06/05 09:59:49;;;;;;;15.33;13.80;;;25.00;60.00;;;;;;5085988;28;20927;-79
2022/06/05 10:02:21;;;;;;;15.00;13.80;;;25.20;59.20;;;;;;5093037;28;20426;-79
2022/06/05 10:04:48;;;;;;;15.17;13.77;;;25.10;58.50;;;;;;5089314;28;20462;-78
2022/06/05 10:07:20;;;;;;;15.40;14.00;;;24.90;60.60;;;;;;5089060;28;20437;-78
2022/06/05 10:09:47;;;;;;;16.30;14.80;;;25.00;60.40;;;;;;5089325;28;20431;-79
2022/06/05 10:12:23;;;;;;;14.20;13.00;;;25.30;59.70;;;;;;5091327;28;20424;-79
2022/06/05 10:14:54;;;;;;;12.53;11.53;;;25.80;57.70;;;;;;5092230;28;20451;-80
2022/06/05 10:17:48;;;;;;;12.50;11.40;;;26.40;54.50;;;;;;5089990;28;20476;-79
2022/06/05 10:20:40;;;;;;;10.23;9.43;;;26.60;52.90;;;;;;5076466;28;20464;-79
2022/06/05 10:23:20;;;;;;;9.87;8.90;;;26.40;52.40;;;;;;5075215;28;20539;-79
2022/06/05 10:25:57;;;;;;;10.03;9.00;;;26.60;52.60;;;;;;5084879;28;20481;-80
2022/06/05 10:28:27;;;;;;;9.67;8.93;;;26.90;52.20;;;;;;5078416;28;20457;-79
2022/06/05 10:30:58;;;;;;;9.67;8.87;;;27.00;51.40;;;;;;5081358;28;20545;-79
2022/06/05 10:33:38;;;;;;;9.10;8.30;;;27.10;50.40;;;;;;5084420;28;20456;-80
2022/06/05 10:36:14;;;;;;;10.60;9.70;;;26.90;51.60;;;;;;5086313;28;20553;-80
2022/06/05 10:38:46;;;;;;;9.53;8.73;;;26.90;50.60;;;;;;5084448;28;20788;-83
2022/06/05 10:41:20;;;;;;;8.50;7.77;;;26.90;52.00;;;;;;5084416;28;20454;-80
2022/06/05 10:44:04;;;;;;;9.67;8.87;;;26.90;51.10;;;;;;5092803;28;20460;-82
2022/06/05 10:46:33;;;;;;;8.57;7.83;;;26.80;51.30;;;;;;5095919;28;20526;-79
2022/06/05 10:49:09;;;;;;;7.33;6.80;;;26.80;51.20;;;;;;5097667;28;20514;-80
2022/06/05 10:51:42;;;;;;;8.53;7.73;;;27.00;50.70;;;;;;5098105;28;20448;-78
2022/06/05 10:54:33;;;;;;;8.83;7.97;;;27.30;49.30;;;;;;5096053;28;20569;-80
2022/06/05 10:57:06;;;;;;;9.10;8.17;;;27.40;49.10;;;;;;5091378;28;20433;-79
2022/06/05 10:59:45;;;;;;;7.83;7.23;;;27.50;48.20;;;;;;5090811;28;20438;-80
2022/06/05 11:02:43;;;;;;;8.70;7.03;;;27.90;47.00;;;;;;5095920;28;20426;-79
2022/06/05 11:05:31;;;;;;;8.30;7.50;;;28.40;45.90;;;;;;5088431;28;20517;-81
2022/06/05 11:08:09;;;;;;;7.57;7.07;;;28.70;46.10;;;;;;5095092;28;20420;-80
2022/06/05 11:13:44;;;;;;;7.33;6.83;;;28.60;45.50;;;;;;5079804;28;20398;-80
2022/06/05 11:16:27;;;;;;;7.90;7.13;;;28.60;46.00;;;;;;5081542;28;20510;-79
2022/06/05 11:19:03;;;;;;;8.27;7.67;;;28.50;45.20;;;;;;5082760;28;20451;-79
2022/06/05 11:21:31;;;;;;;7.50;6.77;;;27.90;45.70;;;;;;5081410;28;20997;-78
2022/06/05 11:24:00;;;;;;;8.87;8.17;;;27.70;47.20;;;;;;5082861;28;20599;-79
2022/06/05 11:26:40;;;;;;;8.43;7.73;;;27.80;45.50;;;;;;5090163;28;20523;-78
2022/06/05 11:29:14;;;;;;;8.37;7.13;;;27.80;47.20;;;;;;5091929;28;20436;-78
2022/06/05 11:31:54;;;;;;;7.70;7.10;;;28.00;46.90;;;;;;5089173;28;20450;-78
2022/06/05 11:34:33;;;;;;;8.10;7.40;;;28.00;47.30;;;;;;5089360;28;20527;-77
2022/06/05 11:37:20;;;;;;;8.43;7.47;;;28.20;45.70;;;;;;5084675;28;20426;-78
2022/06/05 11:39:57;;;;;;;7.10;6.50;;;27.90;47.10;;;;;;5093758;28;20457;-78
2022/06/05 11:42:30;;;;;;;9.40;6.97;;;28.30;45.90;;;;;;5085346;28;20505;-77
2022/06/05 11:45:08;;;;;;;7.80;6.47;;;28.30;45.80;;;;;;5089693;28;20530;-78
2022/06/05 11:47:41;;;;;;;8.33;6.90;;;28.30;45.50;;;;;;5096004;28;20466;-78
2022/06/05 11:50:17;;;;;;;7.37;6.37;;;28.30;44.20;;;;;;5093362;28;20438;-78
2022/06/05 11:52:51;;;;;;;7.83;6.10;;;28.30;44.00;;;;;;5095922;28;20439;-78
2022/06/05 11:55:25;;;;;;;5.13;3.53;;;28.00;45.50;;;;;;5094510;28;20502;-77
2022/06/05 11:58:00;;;;;;;3.27;2.70;;;27.50;43.20;;;;;;5092458;28;20456;-78
2022/06/05 12:00:32;;;;;;;3.87;2.40;;;26.00;44.20;;;;;;5078221;28;20455;-78
2022/06/05 12:03:10;;;;;;;2.53;2.10;;;25.20;46.90;;;;;;5076845;28;20475;-79
2022/06/05 12:05:51;;;;;;;2.90;2.23;;;24.70;48.90;;;;;;5074286;28;20467;-76
2022/06/05 12:08:23;;;;;;;2.50;1.87;;;23.70;52.90;;;;;;5074543;28;20463;-77
2022/06/05 12:11:00;;;;;;;3.40;2.87;;;23.10;57.60;;;;;;5074378;28;20929;-77
2022/06/05 12:13:44;;;;;;;5.30;2.93;;;22.70;64.10;;;;;;5076238;28;20431;-78
2022/06/05 12:16:16;;;;;;;3.00;2.63;;;22.50;71.40;;;;;;5076820;28;20489;-78
2022/06/05 12:18:53;;;;;;;6.87;3.20;;;22.70;72.60;;;;;;5076560;28;20435;-78
2022/06/05 12:21:25;;;;;;;3.37;2.73;;;23.00;69.40;;;;;;5077265;28;20440;-78
2022/06/05 12:24:00;;;;;;;3.30;2.80;;;23.50;66.10;;;;;;5074099;28;20539;-77
2022/06/05 12:26:39;;;;;;;2.80;2.30;;;24.00;62.20;;;;;;5076106;28;20442;-80
2022/06/05 12:29:12;;;;;;;2.90;2.70;;;24.30;61.20;;;;;;5076236;28;20481;-78
2022/06/05 12:31:47;;;;;;;4.07;2.53;;;24.40;58.90;;;;;;5075718;28;20924;-77
2022/06/05 12:34:19;;;;;;;5.90;2.80;;;24.40;56.40;;;;;;5074906;28;20939;-78
2022/06/05 12:36:52;;;;;;;4.37;2.80;;;24.30;57.30;;;;;;5074971;28;20617;-78
2022/06/05 12:39:22;;;;;;;4.13;3.00;;;24.10;59.60;;;;;;5074614;28;20462;-77
2022/06/05 12:42:02;;;;;;;7.63;3.00;;;23.80;62.00;;;;;;5074856;28;20464;-78
2022/06/05 12:44:33;;;;;;;6.27;2.80;;;23.70;65.50;;;;;;5075584;28;20464;-77
2022/06/05 12:47:07;;;;;;;3.10;2.80;;;23.50;68.90;;;;;;5074655;28;20468;-77
2022/06/05 12:50:03;;;;;;;3.07;2.70;;;23.30;68.40;;;;;;5080532;28;20462;-77
2022/06/05 12:52:37;;;;;;;4.37;2.33;;;23.40;70.30;;;;;;5079830;28;20437;-77
2022/06/05 12:55:11;;;;;;;2.87;2.20;;;23.60;68.00;;;;;;5078535;28;20470;-79
2022/06/05 12:57:47;;;;;;;2.20;2.10;;;23.70;62.60;;;;;;5086893;28;20543;-78
2022/06/05 13:00:19;;;;;;;4.50;1.80;;;24.10;62.30;;;;;;5091240;28;20452;-79
2022/06/05 13:02:52;;;;;;;4.63;2.30;;;24.70;59.90;;;;;;5090203;28;20437;-78
2022/06/05 13:05:29;;;;;;;2.20;2.00;;;25.10;54.70;;;;;;5087740;28;20488;-79
2022/06/05 13:08:00;;;;;;;3.33;2.40;;;25.50;53.90;;;;;;5086344;28;20782;-77
2022/06/05 13:10:33;;;;;;;3.17;2.00;;;25.60;53.90;;;;;;5082293;28;20541;-78
2022/06/05 13:13:10;;;;;;;2.03;1.83;;;25.40;53.80;;;;;;5081409;28;20539;-78
2022/06/05 13:15:44;;;;;;;2.70;2.30;;;25.00;59.20;;;;;;5086643;28;20458;-78
2022/06/05 13:18:21;;;;;;;3.47;1.97;;;24.80;61.40;;;;;;5079316;28;20440;-78